sensor_id;sensor_type;location;lat;lon;timestamp;P1;durP1;ratioP1;P2;durP2;ratioP2
6053;SDS011;3055;50.886;14.814;2022-10-26T00:01:01;6.40;;;5.60;;
6053;SDS011;3055;50.886;14.814;2022-10-26T00:03:31;7.80;;;7.07;;
6053;SDS011;3055;50.886;14.814;2022-10-26T00:06:05;6.93;;;6.17;;
6053;SDS011;3055;50.886;14.814;2022-10-26T00:08:33;7.67;;;6.40;;
6053;SDS011;3055;50.886;14.814;2022-10-26T00:11:01;8.47;;;6.30;;
6053;SDS011;3055;50.886;14.814;2022-10-26T00:13:28;8.83;;;6.10;;
6053;SDS011;3055;50.886;14.814;2022-10-26T00:15:55;7.60;;;6.07;;
6053;SDS011;3055;50.886;14.814;2022-10-26T00:18:22;9.00;;;5.97;;
6053;SDS011;3055;50.886;14.814;2022-10-26T00:20:50;7.77;;;6.87;;
6053;SDS011;3055;50.886;14.814;2022-10-26T00:23:17;6.97;;;6.37;;
6053;SDS011;3055;50.886;14.814;2022-10-26T00:25:48;6.77;;;6.07;;
6053;SDS011;3055;50.886;14.814;2022-10-26T00:28:19;8.80;;;6.60;;
6053;SDS011;3055;50.886;14.814;2022-10-26T00:30:46;7.23;;;6.57;;
6053;SDS011;3055;50.886;14.814;2022-10-26T00:33:13;6.07;;;5.47;;
6053;SDS011;3055;50.886;14.814;2022-10-26T00:35:40;7.20;;;6.50;;
6053;SDS011;3055;50.886;14.814;2022-10-26T00:38:09;9.80;;;6.50;;
6053;SDS011;3055;50.886;14.814;2022-10-26T00:40:35;8.10;;;6.13;;
6053;SDS011;3055;50.886;14.814;2022-10-26T00:43:02;8.67;;;6.50;;
6053;SDS011;3055;50.886;14.814;2022-10-26T00:45:31;6.50;;;5.80;;
6053;SDS011;3055;50.886;14.814;2022-10-26T00:47:59;6.77;;;5.87;;
6053;SDS011;3055;50.886;14.814;2022-10-26T00:50:29;7.37;;;5.53;;
6053;SDS011;3055;50.886;14.814;2022-10-26T00:52:59;7.57;;;6.03;;
6053;SDS011;3055;50.886;14.814;2022-10-26T00:55:30;7.77;;;6.43;;
6053;SDS011;3055;50.886;14.814;2022-10-26T00:58:00;8.93;;;5.60;;
6053;SDS011;3055;50.886;14.814;2022-10-26T01:00:30;8.43;;;6.10;;
6053;SDS011;3055;50.886;14.814;2022-10-26T01:02:58;7.47;;;6.00;;
6053;SDS011;3055;50.886;14.814;2022-10-26T01:05:29;5.90;;;5.40;;
6053;SDS011;3055;50.886;14.814;2022-10-26T01:07:57;6.50;;;5.90;;
6053;SDS011;3055;50.886;14.814;2022-10-26T01:10:24;10.60;;;6.03;;
6053;SDS011;3055;50.886;14.814;2022-10-26T01:12:54;6.60;;;5.43;;
6053;SDS011;3055;50.886;14.814;2022-10-26T01:15:28;9.23;;;5.90;;
6053;SDS011;3055;50.886;14.814;2022-10-26T01:18:05;7.13;;;6.07;;
6053;SDS011;3055;50.886;14.814;2022-10-26T01:23:37;7.30;;;5.50;;
6053;SDS011;3055;50.886;14.814;2022-10-26T01:26:26;6.90;;;5.90;;
6053;SDS011;3055;50.886;14.814;2022-10-26T01:29:24;6.90;;;4.90;;
6053;SDS011;3055;50.886;14.814;2022-10-26T01:32:15;7.80;;;5.30;;
6053;SDS011;3055;50.886;14.814;2022-10-26T01:34:46;7.73;;;5.10;;
6053;SDS011;3055;50.886;14.814;2022-10-26T01:37:22;6.73;;;5.43;;
6053;SDS011;3055;50.886;14.814;2022-10-26T01:39:53;7.50;;;5.53;;
6053;SDS011;3055;50.886;14.814;2022-10-26T01:42:25;8.03;;;5.80;;
6053;SDS011;3055;50.886;14.814;2022-10-26T01:44:56;11.13;;;5.93;;
6053;SDS011;3055;50.886;14.814;2022-10-26T01:47:28;8.33;;;6.33;;
6053;SDS011;3055;50.886;14.814;2022-10-26T01:49:57;6.33;;;5.73;;
6053;SDS011;3055;50.886;14.814;2022-10-26T01:52:27;10.10;;;5.30;;
6053;SDS011;3055;50.886;14.814;2022-10-26T01:54:58;6.23;;;5.63;;
6053;SDS011;3055;50.886;14.814;2022-10-26T01:57:26;6.50;;;5.50;;
6053;SDS011;3055;50.886;14.814;2022-10-26T02:00:05;7.07;;;5.50;;
6053;SDS011;3055;50.886;14.814;2022-10-26T02:02:41;5.73;;;5.13;;
6053;SDS011;3055;50.886;14.814;2022-10-26T02:05:34;6.53;;;5.57;;
6053;SDS011;3055;50.886;14.814;2022-10-26T02:08:18;6.93;;;5.70;;
6053;SDS011;3055;50.886;14.814;2022-10-26T02:11:05;6.00;;;5.40;;
6053;SDS011;3055;50.886;14.814;2022-10-26T02:13:41;5.83;;;5.30;;
6053;SDS011;3055;50.886;14.814;2022-10-26T02:16:15;7.63;;;6.47;;
6053;SDS011;3055;50.886;14.814;2022-10-26T02:18:51;9.77;;;5.93;;
6053;SDS011;3055;50.886;14.814;2022-10-26T02:21:24;10.47;;;6.53;;
6053;SDS011;3055;50.886;14.814;2022-10-26T02:23:56;6.67;;;5.60;;
6053;SDS011;3055;50.886;14.814;2022-10-26T02:26:26;7.63;;;6.07;;
6053;SDS011;3055;50.886;14.814;2022-10-26T02:28:57;7.83;;;6.10;;
6053;SDS011;3055;50.886;14.814;2022-10-26T02:31:27;8.37;;;6.17;;
6053;SDS011;3055;50.886;14.814;2022-10-26T02:33:57;6.60;;;5.97;;
6053;SDS011;3055;50.886;14.814;2022-10-26T02:36:29;7.87;;;5.80;;
6053;SDS011;3055;50.886;14.814;2022-10-26T02:39:00;7.33;;;6.27;;
6053;SDS011;3055;50.886;14.814;2022-10-26T02:41:29;8.27;;;6.80;;
6053;SDS011;3055;50.886;14.814;2022-10-26T02:43:58;6.90;;;6.27;;
6053;SDS011;3055;50.886;14.814;2022-10-26T02:46:30;8.43;;;5.63;;
6053;SDS011;3055;50.886;14.814;2022-10-26T02:48:59;6.87;;;6.17;;
6053;SDS011;3055;50.886;14.814;2022-10-26T02:51:28;6.50;;;5.87;;
6053;SDS011;3055;50.886;14.814;2022-10-26T02:54:00;6.90;;;6.20;;
6053;SDS011;3055;50.886;14.814;2022-10-26T02:56:38;8.53;;;6.30;;
6053;SDS011;3055;50.886;14.814;2022-10-26T02:59:12;10.67;;;6.03;;
6053;SDS011;3055;50.886;14.814;2022-10-26T03:01:41;9.80;;;6.70;;
6053;SDS011;3055;50.886;14.814;2022-10-26T03:04:10;6.27;;;5.67;;
6053;SDS011;3055;50.886;14.814;2022-10-26T03:06:37;6.33;;;5.70;;
6053;SDS011;3055;50.886;14.814;2022-10-26T03:09:04;6.60;;;5.90;;
6053;SDS011;3055;50.886;14.814;2022-10-26T03:11:31;8.03;;;6.43;;
6053;SDS011;3055;50.886;14.814;2022-10-26T03:13:58;6.20;;;5.70;;
6053;SDS011;3055;50.886;14.814;2022-10-26T03:16:25;6.37;;;5.67;;
6053;SDS011;3055;50.886;14.814;2022-10-26T03:18:52;6.90;;;6.30;;
6053;SDS011;3055;50.886;14.814;2022-10-26T03:21:20;7.13;;;5.87;;
6053;SDS011;3055;50.886;14.814;2022-10-26T03:23:47;6.90;;;6.20;;
6053;SDS011;3055;50.886;14.814;2022-10-26T03:26:14;8.47;;;5.90;;
6053;SDS011;3055;50.886;14.814;2022-10-26T03:28:42;6.63;;;6.03;;
6053;SDS011;3055;50.886;14.814;2022-10-26T03:31:09;7.40;;;6.30;;
6053;SDS011;3055;50.886;14.814;2022-10-26T03:33:35;8.73;;;6.27;;
6053;SDS011;3055;50.886;14.814;2022-10-26T03:36:02;7.13;;;6.37;;
6053;SDS011;3055;50.886;14.814;2022-10-26T03:38:31;6.93;;;6.23;;
6053;SDS011;3055;50.886;14.814;2022-10-26T03:40:58;6.87;;;6.17;;
6053;SDS011;3055;50.886;14.814;2022-10-26T03:43:25;8.73;;;6.67;;
6053;SDS011;3055;50.886;14.814;2022-10-26T03:45:51;7.30;;;5.87;;
6053;SDS011;3055;50.886;14.814;2022-10-26T03:48:19;7.37;;;6.50;;
6053;SDS011;3055;50.886;14.814;2022-10-26T03:50:46;7.43;;;6.00;;
6053;SDS011;3055;50.886;14.814;2022-10-26T03:53:13;11.87;;;6.57;;
6053;SDS011;3055;50.886;14.814;2022-10-26T03:55:43;9.17;;;6.23;;
6053;SDS011;3055;50.886;14.814;2022-10-26T03:58:10;6.17;;;5.57;;
6053;SDS011;3055;50.886;14.814;2022-10-26T04:00:37;7.37;;;6.57;;
6053;SDS011;3055;50.886;14.814;2022-10-26T04:03:04;8.67;;;6.70;;
6053;SDS011;3055;50.886;14.814;2022-10-26T04:05:31;11.20;;;7.10;;
6053;SDS011;3055;50.886;14.814;2022-10-26T04:07:59;11.00;;;7.23;;
6053;SDS011;3055;50.886;14.814;2022-10-26T04:10:27;7.87;;;6.50;;
6053;SDS011;3055;50.886;14.814;2022-10-26T04:12:56;6.60;;;5.90;;
6053;SDS011;3055;50.886;14.814;2022-10-26T04:15:25;11.73;;;7.10;;
6053;SDS011;3055;50.886;14.814;2022-10-26T04:17:56;10.23;;;7.03;;
6053;SDS011;3055;50.886;14.814;2022-10-26T04:20:26;7.90;;;6.63;;
6053;SDS011;3055;50.886;14.814;2022-10-26T04:22:57;9.33;;;6.77;;
6053;SDS011;3055;50.886;14.814;2022-10-26T04:25:25;9.47;;;6.87;;
6053;SDS011;3055;50.886;14.814;2022-10-26T04:27:52;9.43;;;6.60;;
6053;SDS011;3055;50.886;14.814;2022-10-26T04:30:20;7.67;;;6.67;;
6053;SDS011;3055;50.886;14.814;2022-10-26T04:32:48;11.30;;;6.83;;
6053;SDS011;3055;50.886;14.814;2022-10-26T04:35:14;10.27;;;7.57;;
6053;SDS011;3055;50.886;14.814;2022-10-26T04:37:42;8.90;;;6.90;;
6053;SDS011;3055;50.886;14.814;2022-10-26T04:40:09;8.47;;;6.63;;
6053;SDS011;3055;50.886;14.814;2022-10-26T04:42:39;10.03;;;6.80;;
6053;SDS011;3055;50.886;14.814;2022-10-26T04:45:07;9.70;;;7.33;;
6053;SDS011;3055;50.886;14.814;2022-10-26T04:47:36;9.70;;;7.70;;
6053;SDS011;3055;50.886;14.814;2022-10-26T04:50:03;7.70;;;6.80;;
6053;SDS011;3055;50.886;14.814;2022-10-26T04:52:31;9.00;;;6.97;;
6053;SDS011;3055;50.886;14.814;2022-10-26T04:54:58;9.07;;;7.80;;
6053;SDS011;3055;50.886;14.814;2022-10-26T04:57:25;9.67;;;7.80;;
6053;SDS011;3055;50.886;14.814;2022-10-26T04:59:52;11.70;;;8.03;;
6053;SDS011;3055;50.886;14.814;2022-10-26T05:02:19;9.37;;;7.23;;
6053;SDS011;3055;50.886;14.814;2022-10-26T05:04:48;8.93;;;7.80;;
6053;SDS011;3055;50.886;14.814;2022-10-26T05:07:15;10.87;;;8.43;;
6053;SDS011;3055;50.886;14.814;2022-10-26T05:09:41;11.07;;;7.57;;
6053;SDS011;3055;50.886;14.814;2022-10-26T05:12:08;10.77;;;7.53;;
6053;SDS011;3055;50.886;14.814;2022-10-26T05:14:35;9.03;;;7.70;;
6053;SDS011;3055;50.886;14.814;2022-10-26T05:17:02;11.40;;;7.63;;
6053;SDS011;3055;50.886;14.814;2022-10-26T05:19:29;9.93;;;7.80;;
6053;SDS011;3055;50.886;14.814;2022-10-26T05:21:57;9.03;;;7.63;;
6053;SDS011;3055;50.886;14.814;2022-10-26T05:24:24;13.13;;;7.80;;
6053;SDS011;3055;50.886;14.814;2022-10-26T05:26:51;9.50;;;7.40;;
6053;SDS011;3055;50.886;14.814;2022-10-26T05:29:18;10.87;;;7.90;;
6053;SDS011;3055;50.886;14.814;2022-10-26T05:31:44;17.60;;;8.33;;
6053;SDS011;3055;50.886;14.814;2022-10-26T05:34:11;10.03;;;7.97;;
6053;SDS011;3055;50.886;14.814;2022-10-26T05:36:38;11.53;;;8.30;;
6053;SDS011;3055;50.886;14.814;2022-10-26T05:39:06;10.30;;;7.50;;
6053;SDS011;3055;50.886;14.814;2022-10-26T05:41:33;9.10;;;8.07;;
6053;SDS011;3055;50.886;14.814;2022-10-26T05:44:00;11.97;;;8.03;;
6053;SDS011;3055;50.886;14.814;2022-10-26T05:46:27;9.93;;;8.43;;
6053;SDS011;3055;50.886;14.814;2022-10-26T05:48:54;13.70;;;9.03;;
6053;SDS011;3055;50.886;14.814;2022-10-26T05:51:21;12.23;;;8.43;;
6053;SDS011;3055;50.886;14.814;2022-10-26T05:53:49;11.03;;;8.37;;
6053;SDS011;3055;50.886;14.814;2022-10-26T05:56:20;12.03;;;9.37;;
6053;SDS011;3055;50.886;14.814;2022-10-26T05:59:00;12.03;;;8.27;;
6053;SDS011;3055;50.886;14.814;2022-10-26T06:01:28;12.07;;;8.57;;
6053;SDS011;3055;50.886;14.814;2022-10-26T06:04:11;13.13;;;8.97;;
6053;SDS011;3055;50.886;14.814;2022-10-26T06:06:46;11.93;;;9.53;;
6053;SDS011;3055;50.886;14.814;2022-10-26T06:09:18;11.83;;;9.40;;
6053;SDS011;3055;50.886;14.814;2022-10-26T06:11:47;15.47;;;9.10;;
6053;SDS011;3055;50.886;14.814;2022-10-26T06:14:15;13.03;;;9.67;;
6053;SDS011;3055;50.886;14.814;2022-10-26T06:16:49;12.37;;;9.60;;
6053;SDS011;3055;50.886;14.814;2022-10-26T06:19:32;14.43;;;9.03;;
6053;SDS011;3055;50.886;14.814;2022-10-26T06:22:16;12.00;;;9.63;;
6053;SDS011;3055;50.886;14.814;2022-10-26T06:24:53;11.73;;;10.10;;
6053;SDS011;3055;50.886;14.814;2022-10-26T06:27:30;11.27;;;9.97;;
6053;SDS011;3055;50.886;14.814;2022-10-26T06:30:05;12.40;;;9.67;;
6053;SDS011;3055;50.886;14.814;2022-10-26T06:32:34;10.70;;;9.50;;
6053;SDS011;3055;50.886;14.814;2022-10-26T06:35:05;10.97;;;9.37;;
6053;SDS011;3055;50.886;14.814;2022-10-26T06:37:40;13.20;;;10.10;;
6053;SDS011;3055;50.886;14.814;2022-10-26T06:40:09;17.10;;;10.43;;
6053;SDS011;3055;50.886;14.814;2022-10-26T06:42:40;12.70;;;10.17;;
6053;SDS011;3055;50.886;14.814;2022-10-26T06:45:10;16.27;;;11.13;;
6053;SDS011;3055;50.886;14.814;2022-10-26T06:47:39;16.43;;;11.27;;
6053;SDS011;3055;50.886;14.814;2022-10-26T06:50:15;13.73;;;10.73;;
6053;SDS011;3055;50.886;14.814;2022-10-26T06:52:54;15.87;;;11.20;;
6053;SDS011;3055;50.886;14.814;2022-10-26T06:55:28;17.87;;;11.70;;
6053;SDS011;3055;50.886;14.814;2022-10-26T06:58:02;16.73;;;11.50;;
6053;SDS011;3055;50.886;14.814;2022-10-26T07:00:30;18.07;;;13.17;;
6053;SDS011;3055;50.886;14.814;2022-10-26T07:02:58;21.53;;;13.37;;
6053;SDS011;3055;50.886;14.814;2022-10-26T07:05:25;19.97;;;14.07;;
6053;SDS011;3055;50.886;14.814;2022-10-26T07:07:52;33.00;;;15.63;;
6053;SDS011;3055;50.886;14.814;2022-10-26T07:10:19;21.50;;;13.30;;
6053;SDS011;3055;50.886;14.814;2022-10-26T07:12:46;24.60;;;15.23;;
6053;SDS011;3055;50.886;14.814;2022-10-26T07:15:15;20.37;;;15.37;;
6053;SDS011;3055;50.886;14.814;2022-10-26T07:17:42;30.77;;;18.83;;
6053;SDS011;3055;50.886;14.814;2022-10-26T07:20:10;27.47;;;19.00;;
6053;SDS011;3055;50.886;14.814;2022-10-26T07:22:37;31.90;;;22.13;;
6053;SDS011;3055;50.886;14.814;2022-10-26T07:25:05;30.37;;;21.47;;
6053;SDS011;3055;50.886;14.814;2022-10-26T07:27:34;30.33;;;20.67;;
6053;SDS011;3055;50.886;14.814;2022-10-26T07:30:01;36.50;;;22.10;;
6053;SDS011;3055;50.886;14.814;2022-10-26T07:32:30;36.13;;;19.97;;
6053;SDS011;3055;50.886;14.814;2022-10-26T07:34:57;37.77;;;23.03;;
6053;SDS011;3055;50.886;14.814;2022-10-26T07:37:23;36.40;;;22.33;;
6053;SDS011;3055;50.886;14.814;2022-10-26T07:39:50;33.83;;;21.57;;
6053;SDS011;3055;50.886;14.814;2022-10-26T07:42:17;30.17;;;20.10;;
6053;SDS011;3055;50.886;14.814;2022-10-26T07:44:44;27.37;;;17.73;;
6053;SDS011;3055;50.886;14.814;2022-10-26T07:47:11;25.20;;;16.30;;
6053;SDS011;3055;50.886;14.814;2022-10-26T07:49:39;26.17;;;16.10;;
6053;SDS011;3055;50.886;14.814;2022-10-26T07:52:06;19.83;;;15.93;;
6053;SDS011;3055;50.886;14.814;2022-10-26T07:54:34;21.90;;;17.33;;
6053;SDS011;3055;50.886;14.814;2022-10-26T07:57:01;19.63;;;14.07;;
6053;SDS011;3055;50.886;14.814;2022-10-26T07:59:28;17.60;;;12.63;;
6053;SDS011;3055;50.886;14.814;2022-10-26T08:01:55;16.40;;;13.27;;
6053;SDS011;3055;50.886;14.814;2022-10-26T08:04:22;13.33;;;11.93;;
6053;SDS011;3055;50.886;14.814;2022-10-26T08:06:50;19.07;;;12.73;;
6053;SDS011;3055;50.886;14.814;2022-10-26T08:09:17;19.03;;;12.07;;
6053;SDS011;3055;50.886;14.814;2022-10-26T08:11:44;16.57;;;12.30;;
6053;SDS011;3055;50.886;14.814;2022-10-26T08:14:11;17.50;;;12.30;;
6053;SDS011;3055;50.886;14.814;2022-10-26T08:16:38;15.53;;;12.43;;
6053;SDS011;3055;50.886;14.814;2022-10-26T08:19:06;15.83;;;12.60;;
6053;SDS011;3055;50.886;14.814;2022-10-26T08:21:33;18.53;;;12.87;;
6053;SDS011;3055;50.886;14.814;2022-10-26T08:24:01;16.83;;;12.80;;
6053;SDS011;3055;50.886;14.814;2022-10-26T08:26:28;14.57;;;12.43;;
6053;SDS011;3055;50.886;14.814;2022-10-26T08:28:55;13.87;;;12.07;;
6053;SDS011;3055;50.886;14.814;2022-10-26T08:31:22;16.23;;;13.43;;
6053;SDS011;3055;50.886;14.814;2022-10-26T08:33:49;14.50;;;11.83;;
6053;SDS011;3055;50.886;14.814;2022-10-26T08:36:16;15.90;;;12.30;;
6053;SDS011;3055;50.886;14.814;2022-10-26T08:38:48;14.73;;;11.83;;
6053;SDS011;3055;50.886;14.814;2022-10-26T08:41:17;12.37;;;11.07;;
6053;SDS011;3055;50.886;14.814;2022-10-26T08:43:48;15.43;;;10.03;;
6053;SDS011;3055;50.886;14.814;2022-10-26T08:46:22;12.77;;;10.70;;
6053;SDS011;3055;50.886;14.814;2022-10-26T08:48:53;13.10;;;10.73;;
6053;SDS011;3055;50.886;14.814;2022-10-26T08:51:24;12.97;;;11.00;;
6053;SDS011;3055;50.886;14.814;2022-10-26T08:53:59;15.13;;;10.93;;
6053;SDS011;3055;50.886;14.814;2022-10-26T08:56:34;14.27;;;11.13;;
6053;SDS011;3055;50.886;14.814;2022-10-26T08:59:06;15.60;;;11.27;;
6053;SDS011;3055;50.886;14.814;2022-10-26T09:01:39;14.00;;;10.37;;
6053;SDS011;3055;50.886;14.814;2022-10-26T09:04:08;15.10;;;12.63;;
6053;SDS011;3055;50.886;14.814;2022-10-26T09:06:39;15.33;;;11.63;;
6053;SDS011;3055;50.886;14.814;2022-10-26T09:09:16;12.60;;;11.30;;
6053;SDS011;3055;50.886;14.814;2022-10-26T09:11:50;13.90;;;11.90;;
6053;SDS011;3055;50.886;14.814;2022-10-26T09:14:28;15.90;;;12.13;;
6053;SDS011;3055;50.886;14.814;2022-10-26T09:17:06;17.30;;;12.53;;
6053;SDS011;3055;50.886;14.814;2022-10-26T09:19:43;15.87;;;11.50;;
6053;SDS011;3055;50.886;14.814;2022-10-26T09:22:30;16.13;;;13.13;;
6053;SDS011;3055;50.886;14.814;2022-10-26T09:25:10;16.97;;;12.73;;
6053;SDS011;3055;50.886;14.814;2022-10-26T09:27:45;14.80;;;12.73;;
6053;SDS011;3055;50.886;14.814;2022-10-26T09:30:14;14.53;;;11.80;;
6053;SDS011;3055;50.886;14.814;2022-10-26T09:32:44;15.57;;;11.80;;
6053;SDS011;3055;50.886;14.814;2022-10-26T09:35:13;14.27;;;12.40;;
6053;SDS011;3055;50.886;14.814;2022-10-26T09:37:45;15.03;;;12.37;;
6053;SDS011;3055;50.886;14.814;2022-10-26T09:40:17;16.57;;;11.93;;
6053;SDS011;3055;50.886;14.814;2022-10-26T09:42:53;14.30;;;11.80;;
6053;SDS011;3055;50.886;14.814;2022-10-26T09:45:26;14.87;;;11.40;;
6053;SDS011;3055;50.886;14.814;2022-10-26T09:47:57;12.90;;;10.53;;
6053;SDS011;3055;50.886;14.814;2022-10-26T09:50:30;13.23;;;11.30;;
6053;SDS011;3055;50.886;14.814;2022-10-26T09:53:00;14.03;;;11.87;;
6053;SDS011;3055;50.886;14.814;2022-10-26T09:55:27;12.40;;;9.93;;
6053;SDS011;3055;50.886;14.814;2022-10-26T09:57:58;11.97;;;10.40;;
6053;SDS011;3055;50.886;14.814;2022-10-26T10:00:29;13.57;;;10.23;;
6053;SDS011;3055;50.886;14.814;2022-10-26T10:02:56;11.20;;;9.30;;
6053;SDS011;3055;50.886;14.814;2022-10-26T10:05:25;11.07;;;8.37;;
6053;SDS011;3055;50.886;14.814;2022-10-26T10:08:08;13.17;;;9.10;;
6053;SDS011;3055;50.886;14.814;2022-10-26T10:10:37;9.40;;;8.40;;
6053;SDS011;3055;50.886;14.814;2022-10-26T10:13:15;10.20;;;8.13;;
6053;SDS011;3055;50.886;14.814;2022-10-26T10:15:52;8.87;;;8.00;;
6053;SDS011;3055;50.886;14.814;2022-10-26T10:18:20;9.47;;;7.53;;
6053;SDS011;3055;50.886;14.814;2022-10-26T10:20:54;10.00;;;7.33;;
6053;SDS011;3055;50.886;14.814;2022-10-26T10:23:24;9.63;;;7.63;;
6053;SDS011;3055;50.886;14.814;2022-10-26T10:26:00;9.10;;;6.33;;
6053;SDS011;3055;50.886;14.814;2022-10-26T10:28:30;9.70;;;6.80;;
6053;SDS011;3055;50.886;14.814;2022-10-26T10:30:58;8.40;;;6.77;;
6053;SDS011;3055;50.886;14.814;2022-10-26T10:33:33;9.47;;;7.93;;
6053;SDS011;3055;50.886;14.814;2022-10-26T10:36:03;9.43;;;7.20;;
6053;SDS011;3055;50.886;14.814;2022-10-26T10:38:37;8.03;;;6.70;;
6053;SDS011;3055;50.886;14.814;2022-10-26T10:41:13;8.67;;;6.53;;
6053;SDS011;3055;50.886;14.814;2022-10-26T10:43:45;9.57;;;7.23;;
6053;SDS011;3055;50.886;14.814;2022-10-26T10:46:17;9.10;;;7.83;;
6053;SDS011;3055;50.886;14.814;2022-10-26T10:48:50;11.27;;;6.97;;
6053;SDS011;3055;50.886;14.814;2022-10-26T10:51:27;10.27;;;6.10;;
6053;SDS011;3055;50.886;14.814;2022-10-26T10:53:56;8.63;;;6.20;;
6053;SDS011;3055;50.886;14.814;2022-10-26T10:56:32;9.33;;;6.90;;
6053;SDS011;3055;50.886;14.814;2022-10-26T11:02:16;6.40;;;5.63;;
6053;SDS011;3055;50.886;14.814;2022-10-26T11:05:26;7.17;;;5.80;;
6053;SDS011;3055;50.886;14.814;2022-10-26T11:08:01;7.00;;;5.00;;
6053;SDS011;3055;50.886;14.814;2022-10-26T11:10:32;5.33;;;3.93;;
6053;SDS011;3055;50.886;14.814;2022-10-26T11:13:02;5.30;;;4.10;;
6053;SDS011;3055;50.886;14.814;2022-10-26T11:15:36;6.60;;;4.87;;
6053;SDS011;3055;50.886;14.814;2022-10-26T11:18:11;7.97;;;4.70;;
6053;SDS011;3055;50.886;14.814;2022-10-26T11:20:44;5.13;;;3.90;;
6053;SDS011;3055;50.886;14.814;2022-10-26T11:23:17;7.80;;;4.53;;
6053;SDS011;3055;50.886;14.814;2022-10-26T11:25:48;6.93;;;4.30;;
6053;SDS011;3055;50.886;14.814;2022-10-26T11:28:19;5.37;;;4.40;;
6053;SDS011;3055;50.886;14.814;2022-10-26T11:30:54;7.90;;;4.30;;
6053;SDS011;3055;50.886;14.814;2022-10-26T11:33:29;7.10;;;3.97;;
6053;SDS011;3055;50.886;14.814;2022-10-26T11:35:59;4.13;;;3.47;;
6053;SDS011;3055;50.886;14.814;2022-10-26T11:38:32;4.90;;;3.77;;
6053;SDS011;3055;50.886;14.814;2022-10-26T11:41:05;6.43;;;3.20;;
6053;SDS011;3055;50.886;14.814;2022-10-26T11:43:39;6.43;;;3.13;;
6053;SDS011;3055;50.886;14.814;2022-10-26T11:46:11;6.80;;;3.63;;
6053;SDS011;3055;50.886;14.814;2022-10-26T11:48:46;4.63;;;3.27;;
6053;SDS011;3055;50.886;14.814;2022-10-26T11:51:17;4.63;;;3.60;;
6053;SDS011;3055;50.886;14.814;2022-10-26T11:53:48;5.93;;;3.77;;
6053;SDS011;3055;50.886;14.814;2022-10-26T11:56:22;6.63;;;4.00;;
6053;SDS011;3055;50.886;14.814;2022-10-26T11:58:55;5.10;;;3.60;;
6053;SDS011;3055;50.886;14.814;2022-10-26T12:01:23;6.03;;;3.33;;
6053;SDS011;3055;50.886;14.814;2022-10-26T12:03:54;3.93;;;3.50;;
6053;SDS011;3055;50.886;14.814;2022-10-26T12:06:25;6.90;;;3.83;;
6053;SDS011;3055;50.886;14.814;2022-10-26T12:08:56;10.90;;;6.20;;
6053;SDS011;3055;50.886;14.814;2022-10-26T12:11:32;10.57;;;5.73;;
6053;SDS011;3055;50.886;14.814;2022-10-26T12:14:05;12.60;;;7.70;;
6053;SDS011;3055;50.886;14.814;2022-10-26T12:16:42;4.87;;;3.33;;
6053;SDS011;3055;50.886;14.814;2022-10-26T12:19:19;5.23;;;3.70;;
6053;SDS011;3055;50.886;14.814;2022-10-26T12:21:50;5.10;;;3.07;;
6053;SDS011;3055;50.886;14.814;2022-10-26T12:24:25;4.67;;;3.73;;
6053;SDS011;3055;50.886;14.814;2022-10-26T12:26:54;4.53;;;3.50;;
6053;SDS011;3055;50.886;14.814;2022-10-26T12:35:27;6.70;;;3.60;;
6053;SDS011;3055;50.886;14.814;2022-10-26T12:37:56;4.50;;;3.37;;
6053;SDS011;3055;50.886;14.814;2022-10-26T12:43:34;6.80;;;4.50;;
6053;SDS011;3055;50.886;14.814;2022-10-26T12:52:33;5.90;;;4.30;;
6053;SDS011;3055;50.886;14.814;2022-10-26T12:58:17;5.20;;;4.30;;
6053;SDS011;3055;50.886;14.814;2022-10-26T13:01:08;5.33;;;4.60;;
6053;SDS011;3055;50.886;14.814;2022-10-26T13:04:00;10.67;;;5.57;;
6053;SDS011;3055;50.886;14.814;2022-10-26T13:06:39;8.33;;;5.57;;
6053;SDS011;3055;50.886;14.814;2022-10-26T13:09:19;7.50;;;5.83;;
6053;SDS011;3055;50.886;14.814;2022-10-26T13:11:47;6.83;;;5.30;;
6053;SDS011;3055;50.886;14.814;2022-10-26T13:14:18;7.37;;;5.57;;
6053;SDS011;3055;50.886;14.814;2022-10-26T13:16:47;8.83;;;5.77;;
6053;SDS011;3055;50.886;14.814;2022-10-26T13:19:21;7.50;;;5.70;;
6053;SDS011;3055;50.886;14.814;2022-10-26T13:21:50;5.63;;;4.77;;
6053;SDS011;3055;50.886;14.814;2022-10-26T13:24:19;7.17;;;4.87;;
6053;SDS011;3055;50.886;14.814;2022-10-26T13:30:21;7.00;;;4.73;;
6053;SDS011;3055;50.886;14.814;2022-10-26T13:33:07;6.33;;;5.00;;
6053;SDS011;3055;50.886;14.814;2022-10-26T13:35:50;13.80;;;6.20;;
6053;SDS011;3055;50.886;14.814;2022-10-26T13:38:21;6.63;;;4.40;;
6053;SDS011;3055;50.886;14.814;2022-10-26T13:40:53;15.73;;;7.37;;
6053;SDS011;3055;50.886;14.814;2022-10-26T13:43:33;6.33;;;5.00;;
6053;SDS011;3055;50.886;14.814;2022-10-26T13:46:02;6.37;;;4.33;;
6053;SDS011;3055;50.886;14.814;2022-10-26T13:48:35;6.70;;;4.13;;
6053;SDS011;3055;50.886;14.814;2022-10-26T13:51:06;7.70;;;4.33;;
6053;SDS011;3055;50.886;14.814;2022-10-26T13:53:40;6.40;;;4.00;;
6053;SDS011;3055;50.886;14.814;2022-10-26T13:56:16;14.93;;;4.23;;
6053;SDS011;3055;50.886;14.814;2022-10-26T13:58:51;5.87;;;3.70;;
6053;SDS011;3055;50.886;14.814;2022-10-26T14:01:23;4.50;;;3.60;;
6053;SDS011;3055;50.886;14.814;2022-10-26T14:03:52;6.33;;;4.20;;
6053;SDS011;3055;50.886;14.814;2022-10-26T14:06:21;7.83;;;4.63;;
6053;SDS011;3055;50.886;14.814;2022-10-26T14:08:53;9.77;;;5.13;;
6053;SDS011;3055;50.886;14.814;2022-10-26T14:11:27;7.17;;;4.67;;
6053;SDS011;3055;50.886;14.814;2022-10-26T14:13:57;6.53;;;5.00;;
6053;SDS011;3055;50.886;14.814;2022-10-26T14:16:26;7.30;;;4.63;;
6053;SDS011;3055;50.886;14.814;2022-10-26T14:18:55;9.83;;;5.57;;
6053;SDS011;3055;50.886;14.814;2022-10-26T14:21:22;5.80;;;4.67;;
6053;SDS011;3055;50.886;14.814;2022-10-26T14:23:49;6.67;;;4.80;;
6053;SDS011;3055;50.886;14.814;2022-10-26T14:26:20;6.83;;;4.97;;
6053;SDS011;3055;50.886;14.814;2022-10-26T14:28:50;6.37;;;4.70;;
6053;SDS011;3055;50.886;14.814;2022-10-26T14:31:26;7.30;;;4.73;;
6053;SDS011;3055;50.886;14.814;2022-10-26T14:33:54;11.70;;;5.10;;
6053;SDS011;3055;50.886;14.814;2022-10-26T14:36:22;6.97;;;5.03;;
6053;SDS011;3055;50.886;14.814;2022-10-26T14:38:53;7.40;;;4.80;;
6053;SDS011;3055;50.886;14.814;2022-10-26T14:41:23;6.47;;;4.23;;
6053;SDS011;3055;50.886;14.814;2022-10-26T14:43:52;6.93;;;4.47;;
6053;SDS011;3055;50.886;14.814;2022-10-26T14:46:22;6.40;;;5.20;;
6053;SDS011;3055;50.886;14.814;2022-10-26T14:48:50;6.93;;;4.93;;
6053;SDS011;3055;50.886;14.814;2022-10-26T14:51:20;6.10;;;5.57;;
6053;SDS011;3055;50.886;14.814;2022-10-26T14:53:51;6.60;;;4.87;;
6053;SDS011;3055;50.886;14.814;2022-10-26T14:56:20;8.07;;;5.20;;
6053;SDS011;3055;50.886;14.814;2022-10-26T14:58:49;6.27;;;5.50;;
6053;SDS011;3055;50.886;14.814;2022-10-26T15:01:24;5.27;;;4.67;;
6053;SDS011;3055;50.886;14.814;2022-10-26T15:03:56;8.50;;;4.87;;
6053;SDS011;3055;50.886;14.814;2022-10-26T15:06:30;6.93;;;5.30;;
6053;SDS011;3055;50.886;14.814;2022-10-26T15:09:36;5.70;;;4.73;;
6053;SDS011;3055;50.886;14.814;2022-10-26T15:12:13;7.10;;;5.20;;
6053;SDS011;3055;50.886;14.814;2022-10-26T15:14:45;8.93;;;5.23;;
6053;SDS011;3055;50.886;14.814;2022-10-26T15:17:16;5.80;;;5.20;;
6053;SDS011;3055;50.886;14.814;2022-10-26T15:19:48;6.97;;;5.03;;
6053;SDS011;3055;50.886;14.814;2022-10-26T15:22:19;6.43;;;5.13;;
6053;SDS011;3055;50.886;14.814;2022-10-26T15:24:50;10.23;;;5.20;;
6053;SDS011;3055;50.886;14.814;2022-10-26T15:27:19;5.67;;;5.07;;
6053;SDS011;3055;50.886;14.814;2022-10-26T15:29:49;8.00;;;5.67;;
6053;SDS011;3055;50.886;14.814;2022-10-26T15:32:29;8.03;;;5.40;;
6053;SDS011;3055;50.886;14.814;2022-10-26T15:35:10;7.37;;;5.90;;
6053;SDS011;3055;50.886;14.814;2022-10-26T15:37:49;6.27;;;5.43;;
6053;SDS011;3055;50.886;14.814;2022-10-26T15:40:17;9.37;;;5.30;;
6053;SDS011;3055;50.886;14.814;2022-10-26T15:42:45;8.23;;;6.17;;
6053;SDS011;3055;50.886;14.814;2022-10-26T15:45:16;13.97;;;11.47;;